sensor_id;sensor_type;location;lat;lon;timestamp;temperature;humidity
69054;DHT22;56125;52.242;4.756;2023-04-03T00:02:25;17.60;41.30
69054;DHT22;56125;52.242;4.756;2023-04-03T00:07:26;17.70;41.30
69054;DHT22;56125;52.242;4.756;2023-04-03T00:12:27;17.60;41.30
69054;DHT22;56125;52.242;4.756;2023-04-03T00:17:28;17.60;41.40
69054;DHT22;56125;52.242;4.756;2023-04-03T00:22:29;17.60;41.20
69054;DHT22;56125;52.242;4.756;2023-04-03T00:27:31;17.60;41.10
69054;DHT22;56125;52.242;4.756;2023-04-03T00:32:32;17.60;41.10
69054;DHT22;56125;52.242;4.756;2023-04-03T00:37:33;17.20;41.10
69054;DHT22;56125;52.242;4.756;2023-04-03T00:42:35;17.60;41.20
69054;DHT22;56125;52.242;4.756;2023-04-03T00:47:37;17.70;41.90
69054;DHT22;56125;52.242;4.756;2023-04-03T00:52:39;17.50;41.00
69054;DHT22;56125;52.242;4.756;2023-04-03T00:57:40;17.50;41.00
69054;DHT22;56125;52.242;4.756;2023-04-03T01:02:42;17.50;41.00
69054;DHT22;56125;52.242;4.756;2023-04-03T01:07:43;17.50;41.00
69054;DHT22;56125;52.242;4.756;2023-04-03T01:12:48;17.50;41.20
69054;DHT22;56125;52.242;4.756;2023-04-03T01:17:52;17.50;41.60
69054;DHT22;56125;52.242;4.756;2023-04-03T01:28:21;17.50;41.00
69054;DHT22;56125;52.242;4.756;2023-04-03T01:33:23;17.90;41.30
69054;DHT22;56125;52.242;4.756;2023-04-03T01:38:24;17.50;41.00
69054;DHT22;56125;52.242;4.756;2023-04-03T01:43:25;17.40;40.90
69054;DHT22;56125;52.242;4.756;2023-04-03T01:48:26;17.40;41.10
69054;DHT22;56125;52.242;4.756;2023-04-03T01:53:27;17.40;40.90
69054;DHT22;56125;52.242;4.756;2023-04-03T01:58:28;17.40;40.90
69054;DHT22;56125;52.242;4.756;2023-04-03T02:03:29;17.40;41.10
69054;DHT22;56125;52.242;4.756;2023-04-03T02:08:30;17.40;41.00
69054;DHT22;56125;52.242;4.756;2023-04-03T02:13:31;17.40;41.10
69054;DHT22;56125;52.242;4.756;2023-04-03T02:18:32;17.40;41.10
69054;DHT22;56125;52.242;4.756;2023-04-03T02:23:34;17.40;41.00
69054;DHT22;56125;52.242;4.756;2023-04-03T02:28:37;17.30;41.00
69054;DHT22;56125;52.242;4.756;2023-04-03T02:33:38;17.40;41.10
69054;DHT22;56125;52.242;4.756;2023-04-03T02:38:39;17.30;41.10
69054;DHT22;56125;52.242;4.756;2023-04-03T02:43:41;17.30;41.10
69054;DHT22;56125;52.242;4.756;2023-04-03T02:48:42;17.30;41.00
69054;DHT22;56125;52.242;4.756;2023-04-03T02:53:43;17.30;42.10
69054;DHT22;56125;52.242;4.756;2023-04-03T02:58:44;17.30;41.30
69054;DHT22;56125;52.242;4.756;2023-04-03T03:03:45;17.30;41.30
69054;DHT22;56125;52.242;4.756;2023-04-03T03:08:46;17.30;41.10
69054;DHT22;56125;52.242;4.756;2023-04-03T03:13:47;17.30;41.10
69054;DHT22;56125;52.242;4.756;2023-04-03T03:18:48;17.30;41.10
69054;DHT22;56125;52.242;4.756;2023-04-03T03:23:49;17.30;41.10
69054;DHT22;56125;52.242;4.756;2023-04-03T03:28:50;17.30;41.20
69054;DHT22;56125;52.242;4.756;2023-04-03T03:33:51;17.30;41.30
69054;DHT22;56125;52.242;4.756;2023-04-03T03:38:52;17.30;41.10
69054;DHT22;56125;52.242;4.756;2023-04-03T03:43:53;17.20;41.20
69054;DHT22;56125;52.242;4.756;2023-04-03T03:48:54;17.30;41.10
69054;DHT22;56125;52.242;4.756;2023-04-03T03:53:55;17.20;41.10
69054;DHT22;56125;52.242;4.756;2023-04-03T03:58:56;17.20;41.10
69054;DHT22;56125;52.242;4.756;2023-04-03T04:03:57;17.20;41.10
69054;DHT22;56125;52.242;4.756;2023-04-03T04:08:58;17.20;41.10
69054;DHT22;56125;52.242;4.756;2023-04-03T04:14:00;17.20;41.10
69054;DHT22;56125;52.242;4.756;2023-04-03T04:19:01;17.40;41.60
69054;DHT22;56125;52.242;4.756;2023-04-03T04:24:02;17.20;41.10
69054;DHT22;56125;52.242;4.756;2023-04-03T04:29:03;17.20;41.10
69054;DHT22;56125;52.242;4.756;2023-04-03T04:34:04;17.20;41.20
69054;DHT22;56125;52.242;4.756;2023-04-03T04:39:05;17.70;41.40
69054;DHT22;56125;52.242;4.756;2023-04-03T04:44:06;17.20;41.20
69054;DHT22;56125;52.242;4.756;2023-04-03T04:49:07;17.20;41.20
69054;DHT22;56125;52.242;4.756;2023-04-03T04:54:08;17.20;41.20
69054;DHT22;56125;52.242;4.756;2023-04-03T04:59:09;17.10;41.30
69054;DHT22;56125;52.242;4.756;2023-04-03T05:04:10;17.10;41.10
69054;DHT22;56125;52.242;4.756;2023-04-03T05:09:13;17.10;41.30
69054;DHT22;56125;52.242;4.756;2023-04-03T05:14:14;17.10;41.20
69054;DHT22;56125;52.242;4.756;2023-04-03T05:19:15;17.10;41.30
69054;DHT22;56125;52.242;4.756;2023-04-03T05:24:16;17.10;41.00
69054;DHT22;56125;52.242;4.756;2023-04-03T05:29:17;17.30;41.20
69054;DHT22;56125;52.242;4.756;2023-04-03T05:34:19;17.20;41.20
69054;DHT22;56125;52.242;4.756;2023-04-03T05:39:20;17.20;41.10
69054;DHT22;56125;52.242;4.756;2023-04-03T05:44:21;17.20;41.00
69054;DHT22;56125;52.242;4.756;2023-04-03T05:49:22;17.30;41.10
69054;DHT22;56125;52.242;4.756;2023-04-03T05:54:28;17.40;41.10
69054;DHT22;56125;52.242;4.756;2023-04-03T05:59:29;17.40;41.10
69054;DHT22;56125;52.242;4.756;2023-04-03T06:04:30;17.40;41.10
69054;DHT22;56125;52.242;4.756;2023-04-03T06:09:31;17.50;41.10
69054;DHT22;56125;52.242;4.756;2023-04-03T06:14:32;17.50;41.10
69054;DHT22;56125;52.242;4.756;2023-04-03T06:19:34;17.60;41.00
69054;DHT22;56125;52.242;4.756;2023-04-03T06:24:35;17.60;41.00
69054;DHT22;56125;52.242;4.756;2023-04-03T06:29:36;17.60;40.80
69054;DHT22;56125;52.242;4.756;2023-04-03T06:34:37;17.70;41.00
69054;DHT22;56125;52.242;4.756;2023-04-03T06:39:38;17.80;40.90
69054;DHT22;56125;52.242;4.756;2023-04-03T06:44:39;17.80;40.70
69054;DHT22;56125;52.242;4.756;2023-04-03T06:49:41;17.80;40.90
69054;DHT22;56125;52.242;4.756;2023-04-03T06:54:43;17.80;41.10
69054;DHT22;56125;52.242;4.756;2023-04-03T06:59:44;17.90;41.00
69054;DHT22;56125;52.242;4.756;2023-04-03T07:04:45;17.90;41.00
69054;DHT22;56125;52.242;4.756;2023-04-03T07:09:46;18.00;41.00
69054;DHT22;56125;52.242;4.756;2023-04-03T07:14:48;18.00;41.00
69054;DHT22;56125;52.242;4.756;2023-04-03T07:19:49;18.00;41.00
69054;DHT22;56125;52.242;4.756;2023-04-03T07:24:50;18.00;40.90
69054;DHT22;56125;52.242;4.756;2023-04-03T07:29:51;18.10;41.00
69054;DHT22;56125;52.242;4.756;2023-04-03T07:34:52;18.10;41.90
69054;DHT22;56125;52.242;4.756;2023-04-03T07:39:53;18.10;40.80
69054;DHT22;56125;52.242;4.756;2023-04-03T07:44:56;18.10;40.70
69054;DHT22;56125;52.242;4.756;2023-04-03T07:49:57;18.10;40.50
69054;DHT22;56125;52.242;4.756;2023-04-03T07:54:58;18.10;40.50
69054;DHT22;56125;52.242;4.756;2023-04-03T07:59:59;18.20;40.50
69054;DHT22;56125;52.242;4.756;2023-04-03T08:05:00;18.20;40.40
69054;DHT22;56125;52.242;4.756;2023-04-03T08:10:01;18.20;40.30
69054;DHT22;56125;52.242;4.756;2023-04-03T08:15:03;18.20;40.20
69054;DHT22;56125;52.242;4.756;2023-04-03T08:20:06;18.20;40.20
69054;DHT22;56125;52.242;4.756;2023-04-03T08:25:08;18.20;40.00
69054;DHT22;56125;52.242;4.756;2023-04-03T08:30:09;18.20;39.80
69054;DHT22;56125;52.242;4.756;2023-04-03T08:35:11;18.20;39.70
69054;DHT22;56125;52.242;4.756;2023-04-03T08:40:15;18.20;39.70
69054;DHT22;56125;52.242;4.756;2023-04-03T08:45:27;18.20;39.60
69054;DHT22;56125;52.242;4.756;2023-04-03T08:50:41;18.20;39.40
69054;DHT22;56125;52.242;4.756;2023-04-03T08:55:47;18.20;39.60
69054;DHT22;56125;52.242;4.756;2023-04-03T09:06:05;18.20;39.60
69054;DHT22;56125;52.242;4.756;2023-04-03T09:16:45;18.10;39.40
69054;DHT22;56125;52.242;4.756;2023-04-03T09:21:47;18.10;39.40
69054;DHT22;56125;52.242;4.756;2023-04-03T09:26:53;18.10;38.90
69054;DHT22;56125;52.242;4.756;2023-04-03T09:32:01;18.10;39.00
69054;DHT22;56125;52.242;4.756;2023-04-03T09:37:04;18.10;38.60
69054;DHT22;56125;52.242;4.756;2023-04-03T09:42:19;18.10;38.30
69054;DHT22;56125;52.242;4.756;2023-04-03T09:47:34;18.10;38.50
69054;DHT22;56125;52.242;4.756;2023-04-03T09:52:35;18.10;38.60
69054;DHT22;56125;52.242;4.756;2023-04-03T09:57:37;18.00;38.60
69054;DHT22;56125;52.242;4.756;2023-04-03T10:02:39;18.20;38.70
69054;DHT22;56125;52.242;4.756;2023-04-03T10:07:40;18.00;38.60
69054;DHT22;56125;52.242;4.756;2023-04-03T10:12:42;18.00;38.50
69054;DHT22;56125;52.242;4.756;2023-04-03T10:17:59;18.00;38.40
69054;DHT22;56125;52.242;4.756;2023-04-03T10:28:48;18.00;37.80
69054;DHT22;56125;52.242;4.756;2023-04-03T10:55:57;18.00;37.70
69054;DHT22;56125;52.242;4.756;2023-04-03T11:01:08;18.00;37.40
69054;DHT22;56125;52.242;4.756;2023-04-03T11:06:11;18.00;37.30
69054;DHT22;56125;52.242;4.756;2023-04-03T11:11:20;18.00;37.30
69054;DHT22;56125;52.242;4.756;2023-04-03T11:16:28;18.00;38.00
69054;DHT22;56125;52.242;4.756;2023-04-03T11:21:34;18.10;38.70
69054;DHT22;56125;52.242;4.756;2023-04-03T11:26:40;18.10;38.10
69054;DHT22;56125;52.242;4.756;2023-04-03T11:32:04;18.20;38.40
69054;DHT22;56125;52.242;4.756;2023-04-03T11:37:33;18.30;38.80
69054;DHT22;56125;52.242;4.756;2023-04-03T11:42:39;18.10;38.50
69054;DHT22;56125;52.242;4.756;2023-04-03T11:47:48;18.40;38.40
69054;DHT22;56125;52.242;4.756;2023-04-03T12:08:30;18.40;39.20
69054;DHT22;56125;52.242;4.756;2023-04-03T12:45:18;18.40;38.00
69054;DHT22;56125;52.242;4.756;2023-04-03T12:50:28;18.30;37.90
69054;DHT22;56125;52.242;4.756;2023-04-03T12:55:30;18.30;38.20
69054;DHT22;56125;52.242;4.756;2023-04-03T13:00:34;18.30;38.70
69054;DHT22;56125;52.242;4.756;2023-04-03T13:05:36;18.30;37.80
69054;DHT22;56125;52.242;4.756;2023-04-03T13:10:59;18.30;37.80
69054;DHT22;56125;52.242;4.756;2023-04-03T13:16:08;18.30;37.50
69054;DHT22;56125;52.242;4.756;2023-04-03T13:21:15;18.30;37.50
69054;DHT22;56125;52.242;4.756;2023-04-03T13:26:20;18.30;37.20
69054;DHT22;56125;52.242;4.756;2023-04-03T13:31:28;18.30;37.40
69054;DHT22;56125;52.242;4.756;2023-04-03T13:36:36;18.30;37.20
69054;DHT22;56125;52.242;4.756;2023-04-03T13:41:39;18.30;37.20
69054;DHT22;56125;52.242;4.756;2023-04-03T13:46:40;18.40;37.30
69054;DHT22;56125;52.242;4.756;2023-04-03T13:51:41;18.30;37.40
69054;DHT22;56125;52.242;4.756;2023-04-03T13:56:43;18.00;37.30
69054;DHT22;56125;52.242;4.756;2023-04-03T14:01:52;18.30;37.50
69054;DHT22;56125;52.242;4.756;2023-04-03T14:06:54;18.30;37.50
69054;DHT22;56125;52.242;4.756;2023-04-03T14:12:00;18.30;37.70
69054;DHT22;56125;52.242;4.756;2023-04-03T14:17:20;17.70;37.20
69054;DHT22;56125;52.242;4.756;2023-04-03T14:22:24;18.40;37.70
69054;DHT22;56125;52.242;4.756;2023-04-03T14:27:28;18.40;37.60
69054;DHT22;56125;52.242;4.756;2023-04-03T14:32:30;18.30;37.40
69054;DHT22;56125;52.242;4.756;2023-04-03T14:37:31;18.30;37.60
69054;DHT22;56125;52.242;4.756;2023-04-03T14:42:36;18.10;37.70
69054;DHT22;56125;52.242;4.756;2023-04-03T14:48:04;18.40;37.80
69054;DHT22;56125;52.242;4.756;2023-04-03T14:53:05;18.40;38.20
69054;DHT22;56125;52.242;4.756;2023-04-03T14:58:11;18.40;38.10
69054;DHT22;56125;52.242;4.756;2023-04-03T15:03:14;18.40;38.70
69054;DHT22;56125;52.242;4.756;2023-04-03T15:08:24;18.40;38.60
69054;DHT22;56125;52.242;4.756;2023-04-03T15:13:26;18.40;38.60
69054;DHT22;56125;52.242;4.756;2023-04-03T15:18:31;18.40;38.70
69054;DHT22;56125;52.242;4.756;2023-04-03T15:23:33;18.40;38.50
69054;DHT22;56125;52.242;4.756;2023-04-03T15:28:40;18.40;38.50
69054;DHT22;56125;52.242;4.756;2023-04-03T15:33:41;18.40;38.50
69054;DHT22;56125;52.242;4.756;2023-04-03T15:38:42;18.40;38.30
69054;DHT22;56125;52.242;4.756;2023-04-03T15:43:43;18.30;38.20
69054;DHT22;56125;52.242;4.756;2023-04-03T15:48:44;18.40;38.20
69054;DHT22;56125;52.242;4.756;2023-04-03T15:53:46;18.40;38.20
69054;DHT22;56125;52.242;4.756;2023-04-03T15:58:47;18.40;38.30
69054;DHT22;56125;52.242;4.756;2023-04-03T16:03:48;18.40;38.10
69054;DHT22;56125;52.242;4.756;2023-04-03T16:08:49;18.40;38.10
69054;DHT22;56125;52.242;4.756;2023-04-03T16:13:50;18.90;38.40
69054;DHT22;56125;52.242;4.756;2023-04-03T16:18:54;18.40;38.00
69054;DHT22;56125;52.242;4.756;2023-04-03T16:23:58;19.20;38.70
69054;DHT22;56125;52.242;4.756;2023-04-03T16:29:00;18.40;38.20
69054;DHT22;56125;52.242;4.756;2023-04-03T16:34:01;17.90;37.90
69054;DHT22;56125;52.242;4.756;2023-04-03T16:39:03;18.30;38.00
69054;DHT22;56125;52.242;4.756;2023-04-03T16:44:04;18.30;38.40
69054;DHT22;56125;52.242;4.756;2023-04-03T16:49:07;18.90;38.70
69054;DHT22;56125;52.242;4.756;2023-04-03T16:54:09;18.30;38.10
69054;DHT22;56125;52.242;4.756;2023-04-03T16:59:11;18.30;38.00
69054;DHT22;56125;52.242;4.756;2023-04-03T17:04:12;18.20;37.50
69054;DHT22;56125;52.242;4.756;2023-04-03T17:09:13;18.20;37.50
69054;DHT22;56125;52.242;4.756;2023-04-03T17:14:14;18.20;37.40
69054;DHT22;56125;52.242;4.756;2023-04-03T17:19:15;18.10;37.00
69054;DHT22;56125;52.242;4.756;2023-04-03T17:24:19;18.10;37.10
69054;DHT22;56125;52.242;4.756;2023-04-03T17:29:20;18.20;37.20
69054;DHT22;56125;52.242;4.756;2023-04-03T17:34:21;18.10;37.10
69054;DHT22;56125;52.242;4.756;2023-04-03T17:39:22;18.10;37.10
69054;DHT22;56125;52.242;4.756;2023-04-03T17:44:23;18.20;37.10
69054;DHT22;56125;52.242;4.756;2023-04-03T17:49:24;18.00;37.00
69054;DHT22;56125;52.242;4.756;2023-04-03T17:54:26;18.00;37.20
69054;DHT22;56125;52.242;4.756;2023-04-03T17:59:27;17.90;37.00
69054;DHT22;56125;52.242;4.756;2023-04-03T18:04:28;17.90;37.20
69054;DHT22;56125;52.242;4.756;2023-04-03T18:09:32;17.80;37.00
69054;DHT22;56125;52.242;4.756;2023-04-03T18:14:34;17.90;37.10
69054;DHT22;56125;52.242;4.756;2023-04-03T18:19:36;17.90;37.20
69054;DHT22;56125;52.242;4.756;2023-04-03T18:24:37;17.80;37.20
69054;DHT22;56125;52.242;4.756;2023-04-03T18:29:40;18.00;37.40
69054;DHT22;56125;52.242;4.756;2023-04-03T18:34:42;17.80;37.40
69054;DHT22;56125;52.242;4.756;2023-04-03T18:39:43;17.80;37.20
69054;DHT22;56125;52.242;4.756;2023-04-03T18:44:47;17.80;37.30
69054;DHT22;56125;52.242;4.756;2023-04-03T18:49:49;17.80;37.40
69054;DHT22;56125;52.242;4.756;2023-04-03T18:54:50;17.80;37.30
69054;DHT22;56125;52.242;4.756;2023-04-03T18:59:51;17.70;37.30
69054;DHT22;56125;52.242;4.756;2023-04-03T19:04:52;17.70;37.40
69054;DHT22;56125;52.242;4.756;2023-04-03T19:09:54;17.70;37.40
69054;DHT22;56125;52.242;4.756;2023-04-03T19:14:55;17.70;37.40
69054;DHT22;56125;52.242;4.756;2023-04-03T19:19:56;18.30;37.90
69054;DHT22;56125;52.242;4.756;2023-04-03T19:24:59;17.70;37.50
69054;DHT22;56125;52.242;4.756;2023-04-03T19:30:00;17.70;37.60
69054;DHT22;56125;52.242;4.756;2023-04-03T19:35:02;17.70;37.80
69054;DHT22;56125;52.242;4.756;2023-04-03T19:40:03;17.70;38.10
69054;DHT22;56125;52.242;4.756;2023-04-03T19:45:06;17.70;38.00
69054;DHT22;56125;52.242;4.756;2023-04-03T19:50:08;17.60;38.00
69054;DHT22;56125;52.242;4.756;2023-04-03T19:55:09;17.60;37.80
69054;DHT22;56125;52.242;4.756;2023-04-03T20:00:10;17.60;37.80
69054;DHT22;56125;52.242;4.756;2023-04-03T20:05:13;17.60;37.90
69054;DHT22;56125;52.242;4.756;2023-04-03T20:10:15;17.60;37.90
69054;DHT22;56125;52.242;4.756;2023-04-03T20:15:16;17.60;37.70
69054;DHT22;56125;52.242;4.756;2023-04-03T20:20:17;17.60;38.00
69054;DHT22;56125;52.242;4.756;2023-04-03T20:25:29;17.60;37.80
69054;DHT22;56125;52.242;4.756;2023-04-03T20:30:30;17.60;37.90
69054;DHT22;56125;52.242;4.756;2023-04-03T20:35:31;17.60;37.90
69054;DHT22;56125;52.242;4.756;2023-04-03T20:40:33;17.60;38.00
69054;DHT22;56125;52.242;4.756;2023-04-03T20:45:34;17.60;37.90
69054;DHT22;56125;52.242;4.756;2023-04-03T20:50:36;17.60;37.70
69054;DHT22;56125;52.242;4.756;2023-04-03T20:55:37;17.60;38.00
69054;DHT22;56125;52.242;4.756;2023-04-03T21:00:39;17.60;38.00
69054;DHT22;56125;52.242;4.756;2023-04-03T21:05:40;17.60;37.60
69054;DHT22;56125;52.242;4.756;2023-04-03T21:21:25;17.60;37.70
69054;DHT22;56125;52.242;4.756;2023-04-03T21:26:26;17.60;37.40
69054;DHT22;56125;52.242;4.756;2023-04-03T21:31:57;17.60;37.80
69054;DHT22;56125;52.242;4.756;2023-04-03T21:37:03;17.60;37.50
69054;DHT22;56125;52.242;4.756;2023-04-03T21:42:05;17.70;37.10
69054;DHT22;56125;52.242;4.756;2023-04-03T21:47:07;17.70;37.40
69054;DHT22;56125;52.242;4.756;2023-04-03T21:52:08;17.70;37.00
69054;DHT22;56125;52.242;4.756;2023-04-03T21:57:09;17.70;37.20
69054;DHT22;56125;52.242;4.756;2023-04-03T22:02:11;17.70;36.90
69054;DHT22;56125;52.242;4.756;2023-04-03T22:07:12;17.80;36.80
69054;DHT22;56125;52.242;4.756;2023-04-03T22:12:13;17.80;36.60
69054;DHT22;56125;52.242;4.756;2023-04-03T22:17:15;17.80;36.70
69054;DHT22;56125;52.242;4.756;2023-04-03T22:22:16;17.90;36.70
69054;DHT22;56125;52.242;4.756;2023-04-03T22:27:18;17.90;36.60
69054;DHT22;56125;52.242;4.756;2023-04-03T22:32:19;17.90;36.60
69054;DHT22;56125;52.242;4.756;2023-04-03T22:37:20;18.00;36.50
69054;DHT22;56125;52.242;4.756;2023-04-03T22:42:21;18.00;36.20
69054;DHT22;56125;52.242;4.756;2023-04-03T22:47:22;18.10;36.40
69054;DHT22;56125;52.242;4.756;2023-04-03T22:52:23;18.10;36.30
69054;DHT22;56125;52.242;4.756;2023-04-03T22:57:24;18.10;36.20
69054;DHT22;56125;52.242;4.756;2023-04-03T23:02:25;18.20;36.30
69054;DHT22;56125;52.242;4.756;2023-04-03T23:07:26;18.20;36.20
69054;DHT22;56125;52.242;4.756;2023-04-03T23:12:28;18.20;36.00
69054;DHT22;56125;52.242;4.756;2023-04-03T23:17:29;18.20;36.10
69054;DHT22;56125;52.242;4.756;2023-04-03T23:22:30;18.30;36.00
69054;DHT22;56125;52.242;4.756;2023-04-03T23:27:31;18.30;36.10
69054;DHT22;56125;52.242;4.756;2023-04-03T23:32:32;18.30;35.80
69054;DHT22;56125;52.242;4.756;2023-04-03T23:37:33;18.40;36.10
69054;DHT22;56125;52.242;4.756;2023-04-03T23:42:35;18.30;35.90
69054;DHT22;56125;52.242;4.756;2023-04-03T23:47:36;18.40;35.90
69054;DHT22;56125;52.242;4.756;2023-04-03T23:52:37;18.40;35.80
69054;DHT22;56125;52.242;4.756;2023-04-03T23:57:40;18.40;35.70
